sensor_id;sensor_type;location;lat;lon;timestamp;pressure;altitude;pressure_sealevel;temperature;humidity
55171;BME280;41060;47.510;8.680;2023-07-20T00:00:57;96948.66;;;25.51;38.02
55171;BME280;41060;47.510;8.680;2023-07-20T00:03:24;96944.69;;;25.78;37.60
55171;BME280;41060;47.510;8.680;2023-07-20T00:05:51;96955.44;;;25.60;37.70
55171;BME280;41060;47.510;8.680;2023-07-20T00:08:19;96942.81;;;25.79;37.23
55171;BME280;41060;47.510;8.680;2023-07-20T00:10:48;96932.81;;;25.97;36.70
55171;BME280;41060;47.510;8.680;2023-07-20T00:13:15;96932.81;;;26.40;36.09
55171;BME280;41060;47.510;8.680;2023-07-20T00:15:44;96941.09;;;26.64;35.24
55171;BME280;41060;47.510;8.680;2023-07-20T00:18:11;96939.84;;;26.78;35.28
55171;BME280;41060;47.510;8.680;2023-07-20T00:20:37;96944.34;;;26.91;34.88
55171;BME280;41060;47.510;8.680;2023-07-20T00:23:04;96949.00;;;27.02;34.31
55171;BME280;41060;47.510;8.680;2023-07-20T00:25:34;96943.47;;;27.08;34.17
55171;BME280;41060;47.510;8.680;2023-07-20T00:28:02;96948.78;;;27.15;34.47
55171;BME280;41060;47.510;8.680;2023-07-20T00:30:29;96947.38;;;27.12;34.42
55171;BME280;41060;47.510;8.680;2023-07-20T00:32:55;96948.84;;;26.78;35.40
55171;BME280;41060;47.510;8.680;2023-07-20T00:35:24;96944.31;;;26.72;36.36
55171;BME280;41060;47.510;8.680;2023-07-20T00:37:51;96938.44;;;26.75;35.41
55171;BME280;41060;47.510;8.680;2023-07-20T00:40:17;96938.38;;;26.82;35.16
55171;BME280;41060;47.510;8.680;2023-07-20T00:42:44;96939.91;;;26.60;35.66
55171;BME280;41060;47.510;8.680;2023-07-20T00:45:12;96941.66;;;26.54;36.15
55171;BME280;41060;47.510;8.680;2023-07-20T00:47:39;96945.47;;;26.65;36.19
55171;BME280;41060;47.510;8.680;2023-07-20T00:50:06;96950.97;;;26.58;36.21
55171;BME280;41060;47.510;8.680;2023-07-20T00:52:33;96947.53;;;26.08;36.82
55171;BME280;41060;47.510;8.680;2023-07-20T00:55:00;96935.38;;;26.11;36.96
55171;BME280;41060;47.510;8.680;2023-07-20T00:57:27;96941.72;;;26.04;37.11
55171;BME280;41060;47.510;8.680;2023-07-20T00:59:54;96948.16;;;25.85;36.62
55171;BME280;41060;47.510;8.680;2023-07-20T01:02:22;96949.38;;;25.89;36.60
55171;BME280;41060;47.510;8.680;2023-07-20T01:04:49;96943.78;;;26.09;36.74
55171;BME280;41060;47.510;8.680;2023-07-20T01:07:23;96945.88;;;26.32;36.45
55171;BME280;41060;47.510;8.680;2023-07-20T01:09:56;96907.78;;;26.38;35.32
55171;BME280;41060;47.510;8.680;2023-07-20T01:12:32;96943.72;;;26.70;35.14
55171;BME280;41060;47.510;8.680;2023-07-20T01:15:00;96940.25;;;26.81;34.75
55171;BME280;41060;47.510;8.680;2023-07-20T01:17:28;96951.50;;;26.85;34.36
55171;BME280;41060;47.510;8.680;2023-07-20T01:19:55;96951.81;;;26.77;34.17
55171;BME280;41060;47.510;8.680;2023-07-20T01:22:38;96934.16;;;26.86;34.31
55171;BME280;41060;47.510;8.680;2023-07-20T01:25:28;96942.94;;;27.00;33.96
55171;BME280;41060;47.510;8.680;2023-07-20T01:28:22;96939.06;;;27.07;33.91
55171;BME280;41060;47.510;8.680;2023-07-20T01:30:59;96934.59;;;26.65;34.50
55171;BME280;41060;47.510;8.680;2023-07-20T01:33:32;96931.81;;;26.71;34.16
55171;BME280;41060;47.510;8.680;2023-07-20T01:36:01;96936.78;;;26.56;34.59
55171;BME280;41060;47.510;8.680;2023-07-20T01:38:31;96929.78;;;26.49;34.84
55171;BME280;41060;47.510;8.680;2023-07-20T01:40:57;96936.13;;;26.61;34.28
55171;BME280;41060;47.510;8.680;2023-07-20T01:43:25;96931.56;;;26.73;34.39
55171;BME280;41060;47.510;8.680;2023-07-20T01:45:52;96933.09;;;26.87;33.91
55171;BME280;41060;47.510;8.680;2023-07-20T01:48:18;96934.00;;;26.99;33.53
55171;BME280;41060;47.510;8.680;2023-07-20T01:50:47;96925.75;;;27.06;33.30
55171;BME280;41060;47.510;8.680;2023-07-20T01:53:13;96925.25;;;27.09;32.98
55171;BME280;41060;47.510;8.680;2023-07-20T01:55:39;96928.41;;;26.76;33.83
55171;BME280;41060;47.510;8.680;2023-07-20T01:58:07;96934.28;;;26.73;33.81
55171;BME280;41060;47.510;8.680;2023-07-20T02:00:33;96931.31;;;26.44;33.98
55171;BME280;41060;47.510;8.680;2023-07-20T02:03:02;96937.63;;;26.57;34.59
55171;BME280;41060;47.510;8.680;2023-07-20T02:05:29;96934.28;;;26.73;34.22
55171;BME280;41060;47.510;8.680;2023-07-20T02:07:57;96936.25;;;26.84;33.77
55171;BME280;41060;47.510;8.680;2023-07-20T02:10:24;96937.03;;;26.91;33.65
55171;BME280;41060;47.510;8.680;2023-07-20T02:12:51;96937.53;;;26.81;34.21
55171;BME280;41060;47.510;8.680;2023-07-20T02:15:17;96937.00;;;26.73;34.61
55171;BME280;41060;47.510;8.680;2023-07-20T02:17:44;96944.56;;;26.34;34.94
55171;BME280;41060;47.510;8.680;2023-07-20T02:20:12;96944.91;;;26.20;35.51
55171;BME280;41060;47.510;8.680;2023-07-20T02:22:39;96939.88;;;26.23;35.29
55171;BME280;41060;47.510;8.680;2023-07-20T02:25:08;96939.22;;;26.28;35.29
55171;BME280;41060;47.510;8.680;2023-07-20T02:27:35;96937.34;;;26.28;34.94
55171;BME280;41060;47.510;8.680;2023-07-20T02:30:02;96938.78;;;26.31;35.08
55171;BME280;41060;47.510;8.680;2023-07-20T02:32:30;96934.41;;;26.05;35.08
55171;BME280;41060;47.510;8.680;2023-07-20T02:34:57;96941.09;;;25.84;35.36
55171;BME280;41060;47.510;8.680;2023-07-20T02:37:24;96936.97;;;25.50;35.51
55171;BME280;41060;47.510;8.680;2023-07-20T02:39:50;96948.41;;;25.52;35.74
55171;BME280;41060;47.510;8.680;2023-07-20T02:42:19;96945.97;;;25.44;35.82
55171;BME280;41060;47.510;8.680;2023-07-20T02:44:48;96954.28;;;25.49;35.83
55171;BME280;41060;47.510;8.680;2023-07-20T02:47:14;96950.81;;;25.67;35.48
55171;BME280;41060;47.510;8.680;2023-07-20T02:49:41;96950.59;;;25.68;35.93
55171;BME280;41060;47.510;8.680;2023-07-20T02:52:08;96958.81;;;25.87;35.47
55171;BME280;41060;47.510;8.680;2023-07-20T02:54:34;96954.09;;;26.00;35.19
55171;BME280;41060;47.510;8.680;2023-07-20T02:57:01;96958.19;;;25.85;35.41
55171;BME280;41060;47.510;8.680;2023-07-20T02:59:29;96951.34;;;25.51;36.09
55171;BME280;41060;47.510;8.680;2023-07-20T03:01:55;96959.22;;;25.27;35.91
55171;BME280;41060;47.510;8.680;2023-07-20T03:04:25;96963.19;;;25.25;36.70
55171;BME280;41060;47.510;8.680;2023-07-20T03:06:52;96954.44;;;25.23;36.51
55171;BME280;41060;47.510;8.680;2023-07-20T03:09:18;96953.81;;;25.27;36.63
55171;BME280;41060;47.510;8.680;2023-07-20T03:11:46;96959.50;;;25.51;36.21
55171;BME280;41060;47.510;8.680;2023-07-20T03:14:12;96956.25;;;25.67;36.08
55171;BME280;41060;47.510;8.680;2023-07-20T03:16:40;96951.50;;;25.87;35.51
55171;BME280;41060;47.510;8.680;2023-07-20T03:19:07;96961.38;;;26.00;35.29
55171;BME280;41060;47.510;8.680;2023-07-20T03:21:34;96962.84;;;26.02;35.01
55171;BME280;41060;47.510;8.680;2023-07-20T03:24:06;96948.66;;;25.76;35.81
55171;BME280;41060;47.510;8.680;2023-07-20T03:26:33;96956.06;;;25.62;36.07
55171;BME280;41060;47.510;8.680;2023-07-20T03:28:59;96957.47;;;25.02;37.31
55171;BME280;41060;47.510;8.680;2023-07-20T03:31:26;96966.50;;;24.89;37.61
55171;BME280;41060;47.510;8.680;2023-07-20T03:33:54;96965.84;;;24.42;38.19
55171;BME280;41060;47.510;8.680;2023-07-20T03:36:21;96938.16;;;24.47;38.14
55171;BME280;41060;47.510;8.680;2023-07-20T03:38:47;96958.00;;;24.79;37.58
55171;BME280;41060;47.510;8.680;2023-07-20T03:41:16;96963.50;;;25.10;37.35
55171;BME280;41060;47.510;8.680;2023-07-20T03:43:48;96966.47;;;25.34;37.03
55171;BME280;41060;47.510;8.680;2023-07-20T03:46:16;96963.84;;;25.52;36.54
55171;BME280;41060;47.510;8.680;2023-07-20T03:48:42;96970.28;;;25.26;37.24
55171;BME280;41060;47.510;8.680;2023-07-20T03:51:10;96964.00;;;24.87;37.92
55171;BME280;41060;47.510;8.680;2023-07-20T03:53:37;96973.88;;;24.69;38.51
55171;BME280;41060;47.510;8.680;2023-07-20T03:56:04;96966.25;;;24.33;39.21
55171;BME280;41060;47.510;8.680;2023-07-20T03:58:30;96970.03;;;24.18;39.30
55171;BME280;41060;47.510;8.680;2023-07-20T04:00:57;96972.56;;;24.07;39.91
55171;BME280;41060;47.510;8.680;2023-07-20T04:03:24;96973.41;;;23.88;40.21
55171;BME280;41060;47.510;8.680;2023-07-20T04:05:53;96971.72;;;23.67;40.43
55171;BME280;41060;47.510;8.680;2023-07-20T04:08:22;96974.41;;;23.40;40.83
55171;BME280;41060;47.510;8.680;2023-07-20T04:10:49;96968.16;;;23.40;40.96
55171;BME280;41060;47.510;8.680;2023-07-20T04:13:15;96976.91;;;23.55;40.77
55171;BME280;41060;47.510;8.680;2023-07-20T04:15:42;96966.72;;;24.03;39.75
55171;BME280;41060;47.510;8.680;2023-07-20T04:18:09;96970.00;;;24.45;38.82
55171;BME280;41060;47.510;8.680;2023-07-20T04:20:35;96977.16;;;24.77;38.36
55171;BME280;41060;47.510;8.680;2023-07-20T04:23:02;96973.25;;;24.67;38.13
55171;BME280;41060;47.510;8.680;2023-07-20T04:25:30;96977.16;;;24.77;38.35
55171;BME280;41060;47.510;8.680;2023-07-20T04:27:58;96986.78;;;24.73;38.58
55171;BME280;41060;47.510;8.680;2023-07-20T04:30:26;96978.03;;;24.71;38.80
55171;BME280;41060;47.510;8.680;2023-07-20T04:32:52;96980.66;;;24.91;38.29
55171;BME280;41060;47.510;8.680;2023-07-20T04:35:44;96987.25;;;25.02;38.37
55171;BME280;41060;47.510;8.680;2023-07-20T04:38:12;96964.75;;;25.08;38.18
55171;BME280;41060;47.510;8.680;2023-07-20T04:40:40;96986.19;;;25.16;38.34
55171;BME280;41060;47.510;8.680;2023-07-20T04:43:06;96985.97;;;24.66;39.18
55171;BME280;41060;47.510;8.680;2023-07-20T04:45:33;96995.00;;;24.47;39.86
55171;BME280;41060;47.510;8.680;2023-07-20T04:48:00;96999.97;;;24.37;39.82
55171;BME280;41060;47.510;8.680;2023-07-20T04:50:26;96987.25;;;24.57;39.20
55171;BME280;41060;47.510;8.680;2023-07-20T04:52:53;96991.25;;;24.22;39.92
55171;BME280;41060;47.510;8.680;2023-07-20T04:55:20;96992.94;;;23.96;41.15
55171;BME280;41060;47.510;8.680;2023-07-20T04:57:48;97002.09;;;23.82;41.18
55171;BME280;41060;47.510;8.680;2023-07-20T05:00:15;97001.91;;;23.77;41.21
55171;BME280;41060;47.510;8.680;2023-07-20T05:02:42;96989.03;;;23.79;41.19
55171;BME280;41060;47.510;8.680;2023-07-20T05:05:09;96997.94;;;23.73;41.43
55171;BME280;41060;47.510;8.680;2023-07-20T05:07:36;96997.31;;;23.84;41.67
55171;BME280;41060;47.510;8.680;2023-07-20T05:10:03;96997.69;;;23.74;41.20
55171;BME280;41060;47.510;8.680;2023-07-20T05:12:29;96993.16;;;24.08;40.61
55171;BME280;41060;47.510;8.680;2023-07-20T05:14:58;96994.13;;;24.33;40.21
55171;BME280;41060;47.510;8.680;2023-07-20T05:17:24;96988.16;;;24.25;40.14
55171;BME280;41060;47.510;8.680;2023-07-20T05:19:51;96990.63;;;24.20;40.59
55171;BME280;41060;47.510;8.680;2023-07-20T05:22:18;97001.03;;;24.29;40.22
55171;BME280;41060;47.510;8.680;2023-07-20T05:24:45;96995.66;;;24.16;40.47
55171;BME280;41060;47.510;8.680;2023-07-20T05:27:12;96990.00;;;24.44;40.19
55171;BME280;41060;47.510;8.680;2023-07-20T05:29:43;96983.25;;;24.66;39.52
55171;BME280;41060;47.510;8.680;2023-07-20T05:32:14;96986.00;;;24.60;39.67
55171;BME280;41060;47.510;8.680;2023-07-20T05:34:41;96993.31;;;24.26;40.13
55171;BME280;41060;47.510;8.680;2023-07-20T05:37:07;96988.78;;;24.07;40.74
55171;BME280;41060;47.510;8.680;2023-07-20T05:39:34;96988.53;;;24.28;40.46
55171;BME280;41060;47.510;8.680;2023-07-20T05:42:04;96981.19;;;24.55;39.64
55171;BME280;41060;47.510;8.680;2023-07-20T05:44:30;96976.22;;;24.52;39.46
55171;BME280;41060;47.510;8.680;2023-07-20T05:46:57;96979.41;;;24.16;40.40
55171;BME280;41060;47.510;8.680;2023-07-20T05:49:27;96981.09;;;23.97;41.76
55171;BME280;41060;47.510;8.680;2023-07-20T05:51:54;96975.25;;;23.74;41.65
55171;BME280;41060;47.510;8.680;2023-07-20T05:54:20;96983.16;;;23.69;41.99
55171;BME280;41060;47.510;8.680;2023-07-20T05:56:47;96981.91;;;23.58;42.09
55171;BME280;41060;47.510;8.680;2023-07-20T05:59:15;96978.97;;;23.66;41.64
55171;BME280;41060;47.510;8.680;2023-07-20T06:01:43;96982.94;;;23.70;40.76
55171;BME280;41060;47.510;8.680;2023-07-20T06:04:10;96990.06;;;23.78;40.87
55171;BME280;41060;47.510;8.680;2023-07-20T06:06:38;96991.50;;;24.07;40.63
55171;BME280;41060;47.510;8.680;2023-07-20T06:09:04;96988.50;;;24.48;40.01
55171;BME280;41060;47.510;8.680;2023-07-20T06:11:35;96993.47;;;24.64;39.05
55171;BME280;41060;47.510;8.680;2023-07-20T06:14:02;96989.06;;;24.76;38.90
55171;BME280;41060;47.510;8.680;2023-07-20T06:16:28;96985.16;;;24.59;39.36
55171;BME280;41060;47.510;8.680;2023-07-20T06:18:55;96988.31;;;24.43;39.57
55171;BME280;41060;47.510;8.680;2023-07-20T06:21:22;96993.97;;;24.22;39.69
55171;BME280;41060;47.510;8.680;2023-07-20T06:23:50;96989.44;;;24.02;39.82
55171;BME280;41060;47.510;8.680;2023-07-20T06:26:17;96984.44;;;23.99;40.36
55171;BME280;41060;47.510;8.680;2023-07-20T06:28:45;96981.66;;;24.26;38.65
55171;BME280;41060;47.510;8.680;2023-07-20T06:31:11;96980.59;;;24.53;38.27
55171;BME280;41060;47.510;8.680;2023-07-20T06:33:38;96974.44;;;24.77;36.45
55171;BME280;41060;47.510;8.680;2023-07-20T06:36:05;96983.03;;;24.74;37.63
55171;BME280;41060;47.510;8.680;2023-07-20T06:38:31;96978.75;;;24.98;36.97
55171;BME280;41060;47.510;8.680;2023-07-20T06:41:00;96983.22;;;25.24;36.83
55171;BME280;41060;47.510;8.680;2023-07-20T06:43:26;96982.13;;;25.31;35.66
55171;BME280;41060;47.510;8.680;2023-07-20T06:45:53;96990.56;;;25.48;34.98
55171;BME280;41060;47.510;8.680;2023-07-20T06:48:21;96984.22;;;25.61;34.57
55171;BME280;41060;47.510;8.680;2023-07-20T06:50:47;96984.81;;;25.69;34.07
55171;BME280;41060;47.510;8.680;2023-07-20T06:53:14;96985.91;;;25.24;35.51
55171;BME280;41060;47.510;8.680;2023-07-20T06:55:42;96944.94;;;24.69;35.62
55171;BME280;41060;47.510;8.680;2023-07-20T06:58:10;96995.63;;;24.93;35.10
55171;BME280;41060;47.510;8.680;2023-07-20T07:00:37;96990.50;;;24.79;34.53
55171;BME280;41060;47.510;8.680;2023-07-20T07:03:04;96990.63;;;25.04;35.29
55171;BME280;41060;47.510;8.680;2023-07-20T07:05:30;96993.78;;;25.32;34.72
55171;BME280;41060;47.510;8.680;2023-07-20T07:07:57;96990.94;;;25.52;34.43
55171;BME280;41060;47.510;8.680;2023-07-20T07:10:25;96998.97;;;25.72;33.51
55171;BME280;41060;47.510;8.680;2023-07-20T07:12:52;96987.25;;;25.78;32.91
55171;BME280;41060;47.510;8.680;2023-07-20T07:15:20;96993.22;;;25.86;32.82
55171;BME280;41060;47.510;8.680;2023-07-20T07:17:47;96987.34;;;25.89;32.46
55171;BME280;41060;47.510;8.680;2023-07-20T07:20:13;96990.56;;;25.80;32.59
55171;BME280;41060;47.510;8.680;2023-07-20T07:22:40;96990.06;;;25.89;32.63
55171;BME280;41060;47.510;8.680;2023-07-20T07:25:20;96992.69;;;26.02;31.28
55171;BME280;41060;47.510;8.680;2023-07-20T07:27:46;96978.22;;;25.84;31.90
55171;BME280;41060;47.510;8.680;2023-07-20T07:30:14;96995.44;;;25.71;32.09
55171;BME280;41060;47.510;8.680;2023-07-20T07:32:42;96989.94;;;25.15;32.97
55171;BME280;41060;47.510;8.680;2023-07-20T07:35:08;96991.66;;;25.41;32.92
55171;BME280;41060;47.510;8.680;2023-07-20T07:37:36;96983.31;;;25.74;32.83
55171;BME280;41060;47.510;8.680;2023-07-20T07:40:03;96987.47;;;26.01;32.18
55171;BME280;41060;47.510;8.680;2023-07-20T07:42:31;96977.16;;;26.10;31.66
55171;BME280;41060;47.510;8.680;2023-07-20T07:44:58;96978.69;;;26.24;31.35
55171;BME280;41060;47.510;8.680;2023-07-20T07:47:25;96973.59;;;26.34;31.01
55171;BME280;41060;47.510;8.680;2023-07-20T07:49:52;96979.25;;;26.07;32.17
55171;BME280;41060;47.510;8.680;2023-07-20T07:52:20;96983.91;;;25.76;32.45
55171;BME280;41060;47.510;8.680;2023-07-20T07:54:46;96901.44;;;25.34;32.33
55171;BME280;41060;47.510;8.680;2023-07-20T07:57:13;96976.84;;;25.99;32.07
55171;BME280;41060;47.510;8.680;2023-07-20T07:59:40;96967.44;;;26.02;32.02
55171;BME280;41060;47.510;8.680;2023-07-20T08:02:07;96972.03;;;26.20;31.91
55171;BME280;41060;47.510;8.680;2023-07-20T08:04:33;96971.16;;;26.26;31.38
55171;BME280;41060;47.510;8.680;2023-07-20T08:07:03;96970.22;;;26.38;31.75
55171;BME280;41060;47.510;8.680;2023-07-20T08:09:30;96972.09;;;26.56;31.65
55171;BME280;41060;47.510;8.680;2023-07-20T08:11:56;96974.16;;;26.61;31.02
55171;BME280;41060;47.510;8.680;2023-07-20T08:14:24;96972.00;;;26.63;31.31
55171;BME280;41060;47.510;8.680;2023-07-20T08:16:50;96969.16;;;26.76;31.08
55171;BME280;41060;47.510;8.680;2023-07-20T08:19:17;96973.41;;;26.54;32.00
55171;BME280;41060;47.510;8.680;2023-07-20T08:21:44;96960.19;;;26.57;32.18
55171;BME280;41060;47.510;8.680;2023-07-20T08:24:11;96966.28;;;26.71;31.44
55171;BME280;41060;47.510;8.680;2023-07-20T08:26:38;96959.78;;;26.72;32.39
55171;BME280;41060;47.510;8.680;2023-07-20T08:29:05;96969.16;;;26.58;32.69
55171;BME280;41060;47.510;8.680;2023-07-20T08:31:32;96966.75;;;26.31;32.36
55171;BME280;41060;47.510;8.680;2023-07-20T08:33:58;96965.69;;;26.32;31.99
55171;BME280;41060;47.510;8.680;2023-07-20T08:36:25;96966.38;;;26.46;32.09
55171;BME280;41060;47.510;8.680;2023-07-20T08:38:52;96967.78;;;26.49;32.73
55171;BME280;41060;47.510;8.680;2023-07-20T08:41:21;96959.44;;;26.68;32.27
55171;BME280;41060;47.510;8.680;2023-07-20T08:43:49;96940.69;;;26.78;31.35
55171;BME280;41060;47.510;8.680;2023-07-20T08:46:16;96959.66;;;27.15;30.70
55171;BME280;41060;47.510;8.680;2023-07-20T08:48:43;96952.91;;;27.36;30.99
55171;BME280;41060;47.510;8.680;2023-07-20T08:51:12;96944.19;;;27.45;31.09
55171;BME280;41060;47.510;8.680;2023-07-20T08:53:39;96945.03;;;27.46;30.53
55171;BME280;41060;47.510;8.680;2023-07-20T08:56:09;96940.41;;;27.46;30.26
55171;BME280;41060;47.510;8.680;2023-07-20T08:58:39;96951.66;;;26.72;30.36
55171;BME280;41060;47.510;8.680;2023-07-20T09:01:07;96940.66;;;26.49;31.62
55171;BME280;41060;47.510;8.680;2023-07-20T09:03:34;96936.13;;;26.42;32.05
55171;BME280;41060;47.510;8.680;2023-07-20T09:06:07;96945.31;;;26.23;32.23
55171;BME280;41060;47.510;8.680;2023-07-20T09:08:37;96947.06;;;26.11;31.51
55171;BME280;41060;47.510;8.680;2023-07-20T09:11:05;96936.41;;;26.16;31.35
55171;BME280;41060;47.510;8.680;2023-07-20T09:13:32;96940.72;;;25.49;31.99
55171;BME280;41060;47.510;8.680;2023-07-20T09:16:00;96939.94;;;25.42;31.74
55171;BME280;41060;47.510;8.680;2023-07-20T09:18:29;96949.50;;;25.20;32.39
55171;BME280;41060;47.510;8.680;2023-07-20T09:20:58;96933.19;;;25.51;32.93
55171;BME280;41060;47.510;8.680;2023-07-20T09:23:32;96935.78;;;26.14;32.12
55171;BME280;41060;47.510;8.680;2023-07-20T09:26:00;96930.06;;;26.22;30.66
55171;BME280;41060;47.510;8.680;2023-07-20T09:28:26;96919.72;;;26.13;31.64
55171;BME280;41060;47.510;8.680;2023-07-20T09:30:54;96920.97;;;26.53;32.16
55171;BME280;41060;47.510;8.680;2023-07-20T09:33:24;96889.19;;;25.81;31.42
55171;BME280;41060;47.510;8.680;2023-07-20T09:35:51;96915.50;;;25.98;32.70
55171;BME280;41060;47.510;8.680;2023-07-20T09:38:17;96903.38;;;26.19;31.69
55171;BME280;41060;47.510;8.680;2023-07-20T09:40:44;96902.22;;;26.81;31.68
55171;BME280;41060;47.510;8.680;2023-07-20T09:43:11;96887.44;;;26.77;32.30
55171;BME280;41060;47.510;8.680;2023-07-20T09:45:40;96899.13;;;26.78;31.14
55171;BME280;41060;47.510;8.680;2023-07-20T09:48:09;96896.19;;;26.79;33.08
55171;BME280;41060;47.510;8.680;2023-07-20T09:50:41;96893.31;;;26.44;32.70
55171;BME280;41060;47.510;8.680;2023-07-20T09:53:11;96899.19;;;26.41;32.88
55171;BME280;41060;47.510;8.680;2023-07-20T09:55:39;96899.44;;;26.70;32.85
55171;BME280;41060;47.510;8.680;2023-07-20T09:58:06;96895.53;;;26.48;32.73
55171;BME280;41060;47.510;8.680;2023-07-20T10:00:36;96900.41;;;26.45;32.47
55171;BME280;41060;47.510;8.680;2023-07-20T10:03:03;96901.25;;;26.21;32.45
55171;BME280;41060;47.510;8.680;2023-07-20T10:05:32;96898.88;;;26.50;32.53
55171;BME280;41060;47.510;8.680;2023-07-20T10:08:02;96897.81;;;26.69;32.04
55171;BME280;41060;47.510;8.680;2023-07-20T10:10:31;96897.22;;;26.78;32.24
55171;BME280;41060;47.510;8.680;2023-07-20T10:13:00;96882.47;;;26.74;31.08
55171;BME280;41060;47.510;8.680;2023-07-20T10:15:30;96891.47;;;26.57;31.64
55171;BME280;41060;47.510;8.680;2023-07-20T10:18:09;96885.53;;;26.78;31.68
55171;BME280;41060;47.510;8.680;2023-07-20T10:20:40;96882.50;;;27.16;32.54
55171;BME280;41060;47.510;8.680;2023-07-20T10:23:08;96884.38;;;27.04;31.61
55171;BME280;41060;47.510;8.680;2023-07-20T10:25:35;96880.78;;;27.33;31.20
55171;BME280;41060;47.510;8.680;2023-07-20T10:28:04;96880.28;;;26.83;32.27
55171;BME280;41060;47.510;8.680;2023-07-20T10:30:32;96874.50;;;26.61;32.01
55171;BME280;41060;47.510;8.680;2023-07-20T10:33:00;96876.31;;;26.49;31.42
55171;BME280;41060;47.510;8.680;2023-07-20T10:35:28;96874.16;;;26.39;32.26
55171;BME280;41060;47.510;8.680;2023-07-20T10:38:00;96871.94;;;26.48;32.25
55171;BME280;41060;47.510;8.680;2023-07-20T10:40:30;96865.78;;;26.71;31.73
55171;BME280;41060;47.510;8.680;2023-07-20T10:42:59;96868.78;;;26.99;32.43
55171;BME280;41060;47.510;8.680;2023-07-20T10:45:39;96853.34;;;27.23;31.81
55171;BME280;41060;47.510;8.680;2023-07-20T10:48:13;96857.66;;;27.01;30.99
55171;BME280;41060;47.510;8.680;2023-07-20T10:50:41;96862.25;;;26.89;32.21
55171;BME280;41060;47.510;8.680;2023-07-20T10:53:13;96844.44;;;26.74;31.60
55171;BME280;41060;47.510;8.680;2023-07-20T10:55:42;96845.34;;;26.87;32.63
55171;BME280;41060;47.510;8.680;2023-07-20T10:58:13;96842.06;;;26.96;30.80
55171;BME280;41060;47.510;8.680;2023-07-20T11:00:57;96837.69;;;27.48;31.15
55171;BME280;41060;47.510;8.680;2023-07-20T11:03:29;96834.16;;;27.71;31.41
55171;BME280;41060;47.510;8.680;2023-07-20T11:05:57;96822.66;;;27.92;31.04
55171;BME280;41060;47.510;8.680;2023-07-20T11:08:38;96822.66;;;28.16;30.55
55171;BME280;41060;47.510;8.680;2023-07-20T11:11:24;96831.88;;;27.91;29.22
55171;BME280;41060;47.510;8.680;2023-07-20T11:13:56;96824.13;;;28.35;30.28
55171;BME280;41060;47.510;8.680;2023-07-20T11:16:34;96828.88;;;28.40;28.41
55171;BME280;41060;47.510;8.680;2023-07-20T11:19:01;96828.19;;;28.89;29.17
55171;BME280;41060;47.510;8.680;2023-07-20T11:21:29;96826.19;;;29.30;29.00
55171;BME280;41060;47.510;8.680;2023-07-20T11:23:56;96821.16;;;29.38;28.13
55171;BME280;41060;47.510;8.680;2023-07-20T11:26:25;96817.59;;;29.71;28.22
55171;BME280;41060;47.510;8.680;2023-07-20T11:28:51;96824.25;;;29.97;28.32
55171;BME280;41060;47.510;8.680;2023-07-20T11:31:18;96822.47;;;30.24;28.06
55171;BME280;41060;47.510;8.680;2023-07-20T11:33:45;96819.81;;;30.13;28.17
55171;BME280;41060;47.510;8.680;2023-07-20T11:36:12;96828.25;;;30.11;28.35
55171;BME280;41060;47.510;8.680;2023-07-20T11:38:41;96819.69;;;30.03;26.89
55171;BME280;41060;47.510;8.680;2023-07-20T11:41:08;96811.16;;;29.99;27.50
55171;BME280;41060;47.510;8.680;2023-07-20T11:43:37;96813.91;;;29.99;27.33
55171;BME280;41060;47.510;8.680;2023-07-20T11:46:04;96811.81;;;29.68;26.94
55171;BME280;41060;47.510;8.680;2023-07-20T11:48:32;96801.81;;;29.57;27.25
55171;BME280;41060;47.510;8.680;2023-07-20T11:50:58;96798.97;;;29.51;26.51
55171;BME280;41060;47.510;8.680;2023-07-20T11:53:25;96798.84;;;29.25;26.37
55171;BME280;41060;47.510;8.680;2023-07-20T11:55:52;96789.56;;;29.09;27.36
55171;BME280;41060;47.510;8.680;2023-07-20T11:58:20;96791.31;;;28.98;27.27
55171;BME280;41060;47.510;8.680;2023-07-20T12:00:48;96786.91;;;28.81;26.40
55171;BME280;41060;47.510;8.680;2023-07-20T12:03:15;96786.56;;;28.94;26.57
55171;BME280;41060;47.510;8.680;2023-07-20T12:05:42;96778.22;;;29.12;27.40
55171;BME280;41060;47.510;8.680;2023-07-20T12:08:09;96779.66;;;29.70;28.51
55171;BME280;41060;47.510;8.680;2023-07-20T12:10:39;96736.34;;;29.57;26.57
55171;BME280;41060;47.510;8.680;2023-07-20T12:13:09;96749.97;;;29.73;25.40
55171;BME280;41060;47.510;8.680;2023-07-20T12:15:39;96758.91;;;29.91;27.03
55171;BME280;41060;47.510;8.680;2023-07-20T12:18:08;96767.66;;;29.71;27.26
55171;BME280;41060;47.510;8.680;2023-07-20T12:20:35;96759.75;;;29.91;26.42
55171;BME280;41060;47.510;8.680;2023-07-20T12:23:05;96756.97;;;30.30;26.35
55171;BME280;41060;47.510;8.680;2023-07-20T12:25:39;96748.03;;;30.61;25.32
55171;BME280;41060;47.510;8.680;2023-07-20T12:28:07;96754.22;;;30.51;26.42
55171;BME280;41060;47.510;8.680;2023-07-20T12:30:34;96753.75;;;30.33;26.18
55171;BME280;41060;47.510;8.680;2023-07-20T12:33:02;96755.13;;;29.92;25.62
55171;BME280;41060;47.510;8.680;2023-07-20T12:35:31;96756.59;;;30.21;26.26
55171;BME280;41060;47.510;8.680;2023-07-20T12:37:57;96753.72;;;30.54;25.74
55171;BME280;41060;47.510;8.680;2023-07-20T12:40:24;96746.56;;;30.75;24.61
55171;BME280;41060;47.510;8.680;2023-07-20T12:42:51;96742.97;;;30.48;24.00
55171;BME280;41060;47.510;8.680;2023-07-20T12:45:18;96736.94;;;30.46;24.66
55171;BME280;41060;47.510;8.680;2023-07-20T12:47:45;96742.78;;;30.81;24.91
55171;BME280;41060;47.510;8.680;2023-07-20T12:50:12;96729.88;;;31.09;24.89
55171;BME280;41060;47.510;8.680;2023-07-20T12:52:40;96735.59;;;31.39;23.81
55171;BME280;41060;47.510;8.680;2023-07-20T12:55:08;96729.97;;;31.19;23.42
55171;BME280;41060;47.510;8.680;2023-07-20T12:57:36;96729.03;;;31.03;23.40
55171;BME280;41060;47.510;8.680;2023-07-20T13:00:03;96726.94;;;31.15;23.75
55171;BME280;41060;47.510;8.680;2023-07-20T13:02:32;96727.38;;;31.02;23.40
55171;BME280;41060;47.510;8.680;2023-07-20T13:04:59;96717.25;;;31.02;24.58